createdAt,value
2022-08-05T00:01:36.018Z,100031.00
2022-08-05T00:04:08.404Z,100033.50
2022-08-05T00:06:36.450Z,100027.44
2022-08-05T00:09:12.837Z,100037.72
2022-08-05T00:11:48.426Z,100038.41
2022-08-05T00:14:17.701Z,100028.94
2022-08-05T00:16:53.060Z,100034.22
2022-08-05T00:19:24.945Z,100029.63
2022-08-05T00:22:02.525Z,100030.25
2022-08-05T00:24:31.545Z,100028.16
2022-08-05T00:26:59.528Z,100025.66
2022-08-05T00:29:37.730Z,100024.19
2022-08-05T00:32:12.341Z,100031.97
2022-08-05T00:35:04.760Z,100032.00
2022-08-05T00:37:51.343Z,100033.25
2022-08-05T00:40:27.034Z,100035.41
2022-08-05T00:42:58.127Z,100043.00
2022-08-05T00:45:39.152Z,100040.66
2022-08-05T00:48:12.997Z,100044.03
2022-08-05T00:50:44.368Z,100041.31
2022-08-05T00:54:00.643Z,100037.75
2022-08-05T00:56:04.256Z,100048.06
2022-08-05T00:58:32.441Z,100044.69
2022-08-05T01:01:00.378Z,100050.56
2022-08-05T01:03:31.068Z,100049.50
2022-08-05T01:06:03.925Z,100052.22
2022-08-05T01:08:42.818Z,100044.50
2022-08-05T01:11:22.283Z,100047.84
2022-08-05T01:14:08.964Z,100047.00
2022-08-05T01:16:48.324Z,100056.03
2022-08-05T01:19:56.213Z,100051.63
2022-08-05T01:22:53.660Z,100050.37
2022-08-05T01:25:53.637Z,100060.22
2022-08-05T01:28:29.912Z,100045.56
2022-08-05T01:31:02.983Z,100047.66
2022-08-05T01:33:38.236Z,100045.97
2022-08-05T01:36:16.039Z,100036.75
2022-08-05T01:38:48.541Z,100037.78
2022-08-05T01:41:21.876Z,100035.47
2022-08-05T01:43:52.667Z,100039.25
2022-08-05T01:46:42.668Z,100030.44
2022-08-05T01:49:23.896Z,100029.81
2022-08-05T01:51:58.462Z,100023.72
2022-08-05T01:54:34.812Z,100025.19
2022-08-05T01:58:09.947Z,100027.06
2022-08-05T02:00:11.852Z,100024.97
2022-08-05T02:02:46.553Z,100030.37
2022-08-05T02:05:23.721Z,100021.56
2022-08-05T02:08:00.076Z,100022.81
2022-08-05T02:10:35.679Z,100017.78
2022-08-05T02:13:15.835Z,100020.72
2022-08-05T02:15:50.606Z,100014.66
2022-08-05T02:18:30.615Z,100010.00
2022-08-05T02:21:06.515Z,100021.94
2022-08-05T02:23:46.083Z,100016.00
2022-08-05T02:26:21.841Z,100012.91
2022-08-05T02:28:51.405Z,100021.25
2022-08-05T02:31:24.505Z,100011.62
2022-08-05T02:33:57.296Z,100010.56
2022-08-05T02:36:31.358Z,100001.97
2022-08-05T02:39:02.705Z,100017.00
2022-08-05T02:41:43.057Z,100018.91
2022-08-05T02:44:24.266Z,100020.97
2022-08-05T02:47:00.227Z,100022.63
2022-08-05T02:49:36.762Z,100032.66
2022-08-05T02:52:08.897Z,100032.31
2022-08-05T02:54:41.353Z,100023.75
2022-08-05T02:58:19.950Z,100034.22
2022-08-05T03:00:01.346Z,100038.16
2022-08-05T03:02:34.864Z,100047.75
2022-08-05T03:05:04.230Z,100051.94
2022-08-05T03:08:00.670Z,100045.00
2022-08-05T03:10:24.938Z,100049.00
2022-08-05T03:12:53.804Z,100046.28
2022-08-05T03:15:23.787Z,100050.06
2022-08-05T03:17:56.023Z,100050.44
2022-08-05T03:20:26.387Z,100044.28
2022-08-05T03:22:57.527Z,100044.28
2022-08-05T03:25:32.786Z,100050.78
2022-08-05T03:28:18.731Z,100040.19
2022-08-05T03:30:49.536Z,100034.94
2022-08-05T03:33:20.283Z,100034.53
2022-08-05T03:35:51.732Z,100035.31
2022-08-05T03:38:32.669Z,100046.66
2022-08-05T03:41:04.042Z,100048.53
2022-08-05T03:44:09.336Z,100056.41
2022-08-05T03:46:29.505Z,100055.56
2022-08-05T03:48:59.454Z,100061.34
2022-08-05T03:52:49.071Z,100060.53
2022-08-05T03:55:52.674Z,100055.72
2022-08-05T03:57:28.951Z,100057.59
2022-08-05T04:00:01.760Z,100063.69
2022-08-05T04:02:38.796Z,100067.69
2022-08-05T04:05:16.848Z,100069.06
2022-08-05T04:07:57.269Z,100082.53
2022-08-05T04:10:28.285Z,100083.97
2022-08-05T04:13:00.136Z,100084.22
2022-08-05T04:15:33.181Z,100090.94
2022-08-05T04:18:07.250Z,100094.69
2022-08-05T04:20:37.657Z,100091.34
2022-08-05T04:23:12.463Z,100101.66
2022-08-05T04:26:00.425Z,100113.50
2022-08-05T04:28:31.722Z,100137.62
2022-08-05T04:31:01.355Z,100161.66
2022-08-05T04:33:54.941Z,100192.28
2022-08-05T04:36:45.973Z,100218.28
2022-08-05T04:39:07.863Z,100199.44
2022-08-05T04:41:36.920Z,100206.31
2022-08-05T04:44:09.258Z,100205.91
2022-08-05T04:46:38.552Z,100208.50
2022-08-05T04:49:12.299Z,100196.37
2022-08-05T04:51:45.259Z,100206.50
2022-08-05T04:54:14.659Z,100208.50
2022-08-05T04:56:43.594Z,100211.66
2022-08-05T04:59:24.140Z,100217.81
2022-08-05T05:02:07.035Z,100202.31
2022-08-05T05:04:38.171Z,100206.94
2022-08-05T05:07:09.365Z,100231.47
2022-08-05T05:09:38.099Z,100239.28
2022-08-05T05:12:06.571Z,100229.78
2022-08-05T05:14:36.314Z,100217.66
2022-08-05T05:17:07.423Z,100229.56
2022-08-05T05:19:44.302Z,100243.03
2022-08-05T05:22:23.841Z,100233.59
2022-08-05T05:24:57.052Z,100248.34
2022-08-05T05:27:44.498Z,100244.31
2022-08-05T05:30:30.975Z,100234.22
2022-08-05T05:33:09.416Z,100231.38
2022-08-05T05:35:46.659Z,100222.31
2022-08-05T05:38:27.098Z,100228.16
2022-08-05T05:40:56.531Z,100221.72
2022-08-05T05:43:54.829Z,100222.59
2022-08-05T05:46:17.540Z,100223.81
2022-08-05T05:48:48.918Z,100211.09
2022-08-05T05:51:22.114Z,100201.62
2022-08-05T05:53:57.657Z,100188.81
2022-08-05T05:56:32.471Z,100179.72
2022-08-05T05:59:05.801Z,100172.44
2022-08-05T06:01:38.075Z,100174.03
2022-08-05T06:04:08.398Z,100171.16
2022-08-05T06:06:41.695Z,100167.13
2022-08-05T06:09:17.439Z,100150.56
2022-08-05T06:11:59.507Z,100146.78
2022-08-05T06:14:29.682Z,100155.13
2022-08-05T06:16:57.903Z,100154.59
2022-08-05T06:19:35.028Z,100146.19
2022-08-05T06:22:03.911Z,100146.19
2022-08-05T06:24:34.223Z,100161.66
2022-08-05T06:27:04.146Z,100163.06
2022-08-05T06:29:51.945Z,100162.13
2022-08-05T06:32:25.013Z,100146.69
2022-08-05T06:34:56.559Z,100159.91
2022-08-05T06:37:57.951Z,100179.56
2022-08-05T06:40:18.178Z,100182.53
2022-08-05T06:42:51.998Z,100191.62
2022-08-05T06:45:43.949Z,100188.31
2022-08-05T06:48:36.148Z,100191.69
2022-08-05T06:51:00.203Z,100203.47
2022-08-05T06:53:29.324Z,100198.25
2022-08-05T06:56:00.392Z,100187.53
2022-08-05T06:58:29.670Z,100190.06
2022-08-05T07:00:59.540Z,100198.06
2022-08-05T07:03:32.381Z,100213.97
2022-08-05T07:06:06.178Z,100237.44
2022-08-05T07:08:48.077Z,100273.38
2022-08-05T07:11:22.397Z,100297.66
2022-08-05T07:14:15.426Z,100282.16
2022-08-05T07:17:59.877Z,100250.13
2022-08-05T07:22:30.111Z,100267.69
2022-08-05T07:25:22.779Z,100282.91
2022-08-05T07:27:58.017Z,100284.84
2022-08-05T07:30:33.454Z,100285.41
2022-08-05T07:33:05.208Z,100293.97
2022-08-05T07:36:03.459Z,100290.84
2022-08-05T07:38:32.015Z,100295.09
2022-08-05T07:42:08.761Z,100302.72
2022-08-05T07:43:55.063Z,100296.50
2022-08-05T07:46:26.401Z,100300.12
2022-08-05T07:49:01.908Z,100313.41
2022-08-05T07:51:48.645Z,100306.25
2022-08-05T07:54:31.619Z,100311.69
2022-08-05T07:57:16.905Z,100311.28
2022-08-05T07:59:52.373Z,100312.13
2022-08-05T08:02:26.566Z,100320.09
2022-08-05T08:04:55.763Z,100316.38
2022-08-05T08:07:24.364Z,100322.66
2022-08-05T08:09:56.728Z,100337.31
2022-08-05T08:12:36.903Z,100334.81
2022-08-05T08:15:15.115Z,100329.34
2022-08-05T08:17:49.681Z,100327.84
2022-08-05T08:20:44.125Z,100332.25
2022-08-05T08:24:00.323Z,100344.25
2022-08-05T08:26:02.839Z,100324.38
2022-08-05T08:28:36.672Z,100325.19
2022-08-05T08:31:07.506Z,100332.34
2022-08-05T08:33:36.120Z,100329.06
2022-08-05T08:36:38.708Z,100312.66
2022-08-05T08:38:57.082Z,100310.34
2022-08-05T08:41:50.858Z,100294.28
2022-08-05T08:45:20.048Z,100281.28
2022-08-05T08:47:34.590Z,100275.78
2022-08-05T08:50:07.740Z,100294.97
2022-08-05T08:52:52.869Z,100284.31
2022-08-05T08:55:31.934Z,100273.03
2022-08-05T08:58:12.917Z,100273.69
2022-08-05T09:00:42.826Z,100282.41
2022-08-05T09:03:16.313Z,100293.88
2022-08-05T09:06:08.700Z,100301.69
2022-08-05T09:08:40.239Z,100307.31
2022-08-05T09:11:12.200Z,100325.94
2022-08-05T09:14:00.960Z,100302.00
2022-08-05T09:16:31.270Z,100318.59
2022-08-05T09:19:00.926Z,100305.88
2022-08-05T09:22:23.072Z,100300.12
2022-08-05T09:24:24.280Z,100293.75
2022-08-05T09:26:54.028Z,100276.88
2022-08-05T09:29:30.896Z,100242.88
2022-08-05T09:32:42.934Z,100187.78
2022-08-05T09:34:58.364Z,100207.34
2022-08-05T09:38:13.030Z,100246.25
2022-08-05T09:40:32.025Z,100259.62
2022-08-05T09:43:01.179Z,100261.81
2022-08-05T09:46:07.238Z,100263.63
2022-08-05T09:48:26.847Z,100284.97
2022-08-05T09:50:58.802Z,100315.78
2022-08-05T09:53:54.682Z,100309.53
2022-08-05T09:56:25.915Z,100308.72
2022-08-05T09:58:58.515Z,100314.81
2022-08-05T10:01:31.887Z,100312.91
2022-08-05T10:04:04.478Z,100320.66
2022-08-05T10:06:41.442Z,100312.22
2022-08-05T10:09:27.736Z,100321.94
2022-08-05T10:12:18.506Z,100329.38
2022-08-05T10:15:16.997Z,100337.41
2022-08-05T10:18:07.839Z,100326.06
2022-08-05T10:20:38.756Z,100335.09
2022-08-05T10:23:34.504Z,100334.16
2022-08-05T10:26:02.642Z,100326.81
2022-08-05T10:28:31.285Z,100328.69
2022-08-05T10:32:55.077Z,100327.63
2022-08-05T10:33:54.187Z,100319.19
2022-08-05T10:36:23.701Z,100321.78
2022-08-05T10:39:01.563Z,100321.44
2022-08-05T10:41:47.399Z,100313.38
2022-08-05T10:44:19.361Z,100307.91
2022-08-05T10:46:50.567Z,100307.41
2022-08-05T10:49:27.519Z,100299.28
2022-08-05T10:52:03.318Z,100297.66
2022-08-05T10:55:03.460Z,100295.00
2022-08-05T10:57:34.197Z,100293.72
2022-08-05T11:00:18.652Z,100282.41
2022-08-05T11:03:26.006Z,100285.38
2022-08-05T11:06:15.769Z,100287.06
2022-08-05T11:09:31.896Z,100290.06
2022-08-05T11:12:54.398Z,100290.63
2022-08-05T11:15:59.283Z,100285.91
2022-08-05T11:18:29.702Z,100286.28
2022-08-05T11:20:59.107Z,100279.19
2022-08-05T11:24:02.605Z,100270.16
2022-08-05T11:26:29.201Z,100281.00
2022-08-05T11:29:12.729Z,100273.91
2022-08-05T11:31:56.520Z,100268.75
2022-08-05T11:34:51.051Z,100269.75
2022-08-05T11:38:30.793Z,100273.16
2022-08-05T11:41:14.196Z,100274.75
2022-08-05T11:44:04.574Z,100272.62
2022-08-05T11:46:58.265Z,100270.13
2022-08-05T11:49:26.972Z,100278.69
2022-08-05T11:51:57.329Z,100270.44
2022-08-05T11:54:33.308Z,100269.81
2022-08-05T11:57:07.987Z,100262.81
2022-08-05T11:59:52.340Z,100264.16
2022-08-05T12:02:31.645Z,100252.97
2022-08-05T12:05:07.279Z,100249.28
2022-08-05T12:08:07.389Z,100250.94
2022-08-05T12:10:38.388Z,100248.59
2022-08-05T12:13:15.882Z,100245.06
2022-08-05T12:15:49.819Z,100251.06
2022-08-05T12:18:20.638Z,100239.03
2022-08-05T12:20:52.435Z,100236.00
2022-08-05T12:23:20.306Z,100246.44
2022-08-05T12:25:52.614Z,100240.75
2022-08-05T12:28:35.217Z,100248.31
2022-08-05T12:31:05.536Z,100231.00
2022-08-05T12:33:36.440Z,100230.28
2022-08-05T12:36:08.500Z,100240.41
2022-08-05T12:38:39.684Z,100228.97
2022-08-05T12:41:13.476Z,100238.38
2022-08-05T12:43:53.201Z,100231.38
2022-08-05T12:46:29.311Z,100226.59
2022-08-05T12:49:01.527Z,100235.81
2022-08-05T12:52:12.542Z,100238.88
2022-08-05T12:54:34.685Z,100241.41
2022-08-05T12:57:04.524Z,100248.31
2022-08-05T12:59:46.952Z,100250.69
2022-08-05T13:02:37.319Z,100252.03
2022-08-05T13:05:12.494Z,100244.44
2022-08-05T13:08:01.063Z,100253.81
2022-08-05T13:10:32.671Z,100249.34
2022-08-05T13:13:00.502Z,100249.84
2022-08-05T13:15:41.749Z,100245.06
2022-08-05T13:18:19.571Z,100250.19
2022-08-05T13:20:50.343Z,100250.87
2022-08-05T13:23:22.790Z,100256.75
2022-08-05T13:25:59.338Z,100256.22
2022-08-05T13:28:27.952Z,100260.59
2022-08-05T13:30:57.315Z,100263.09
2022-08-05T13:34:23.190Z,100267.69
2022-08-05T13:36:14.913Z,100270.69
2022-08-05T13:38:43.336Z,100269.59
2022-08-05T13:41:11.940Z,100270.28
2022-08-05T13:43:44.271Z,100265.72
2022-08-05T13:47:01.778Z,100262.25
2022-08-05T13:49:11.766Z,100251.09
2022-08-05T13:51:46.067Z,100253.50
2022-08-05T13:54:16.382Z,100251.41
2022-08-05T13:56:51.080Z,100245.62
2022-08-05T13:59:24.846Z,100245.62
2022-08-05T14:01:56.550Z,100249.41
2022-08-05T14:04:49.472Z,100240.50
2022-08-05T14:07:55.424Z,100243.09
2022-08-05T14:10:13.598Z,100233.91
2022-08-05T14:12:48.687Z,100235.44
2022-08-05T14:16:06.972Z,100232.25
2022-08-05T14:18:06.170Z,100230.44
2022-08-05T14:20:46.837Z,100233.72
2022-08-05T14:23:23.403Z,100228.91
2022-08-05T14:25:53.976Z,100233.75
2022-08-05T14:28:26.445Z,100227.69
2022-08-05T14:30:55.410Z,100236.56
2022-08-05T14:33:24.135Z,100247.66
2022-08-05T14:35:54.394Z,100259.12
2022-08-05T14:38:32.093Z,100264.53
2022-08-05T14:41:05.585Z,100266.00
2022-08-05T14:44:02.059Z,100261.34
2022-08-05T14:46:28.690Z,100265.56
2022-08-05T14:49:03.457Z,100284.69
2022-08-05T14:51:37.703Z,100290.34
2022-08-05T14:54:28.066Z,100305.59
2022-08-05T14:56:56.916Z,100320.25
2022-08-05T14:59:25.225Z,100324.16
2022-08-05T15:01:57.855Z,100342.25
2022-08-05T15:04:28.882Z,100365.03
2022-08-05T15:06:57.017Z,100365.72
2022-08-05T15:09:52.509Z,100373.88
2022-08-05T15:12:16.844Z,100388.31
2022-08-05T15:14:50.510Z,100400.34
2022-08-05T15:17:47.412Z,100401.44
2022-08-05T15:20:18.886Z,100408.78
2022-08-05T15:22:54.005Z,100429.16
2022-08-05T15:25:52.869Z,100446.22
2022-08-05T15:28:14.996Z,100457.34
2022-08-05T15:30:45.504Z,100466.16
2022-08-05T15:34:04.847Z,100470.66
2022-08-05T15:36:03.939Z,100483.59
2022-08-05T15:38:36.436Z,100474.22
2022-08-05T15:41:21.853Z,100488.97
2022-08-05T15:43:54.577Z,100491.19
2022-08-05T15:46:24.002Z,100480.38
2022-08-05T15:48:58.653Z,100471.88
2022-08-05T15:52:04.107Z,100481.09
2022-08-05T15:54:18.416Z,100477.59
2022-08-05T15:56:47.645Z,100479.53
2022-08-05T15:59:21.742Z,100489.56
2022-08-05T16:01:52.296Z,100503.91
2022-08-05T16:04:25.227Z,100521.56
2022-08-05T16:06:55.791Z,100523.06
2022-08-05T16:09:25.092Z,100530.03
2022-08-05T16:11:54.487Z,100547.94
2022-08-05T16:14:22.597Z,100547.44
2022-08-05T16:16:50.877Z,100551.56
2022-08-05T16:20:03.726Z,100556.72
2022-08-05T16:22:10.679Z,100557.03
2022-08-05T16:24:51.162Z,100554.44
2022-08-05T16:27:32.018Z,100558.25
2022-08-05T16:30:23.103Z,100569.75
2022-08-05T16:32:51.895Z,100579.31
2022-08-05T16:35:28.272Z,100592.75
2022-08-05T16:38:03.095Z,100585.47
2022-08-05T16:40:43.076Z,100593.56
2022-08-05T16:43:23.736Z,100581.06
2022-08-05T16:46:03.850Z,100592.13
2022-08-05T16:48:38.924Z,100600.53
2022-08-05T16:51:09.927Z,100615.03
2022-08-05T16:54:03.019Z,100632.56
2022-08-05T16:56:29.178Z,100627.75
2022-08-05T16:59:00.757Z,100632.91
2022-08-05T17:01:52.846Z,100635.66
2022-08-05T17:04:18.778Z,100644.37
2022-08-05T17:06:53.120Z,100655.88
2022-08-05T17:09:23.193Z,100641.34
2022-08-05T17:11:56.084Z,100619.03
2022-08-05T17:14:37.516Z,100634.03
2022-08-05T17:17:09.347Z,100651.19
2022-08-05T17:19:46.119Z,100650.16
2022-08-05T17:22:24.842Z,100650.19
2022-08-05T17:24:57.836Z,100646.31
2022-08-05T17:27:33.370Z,100652.16
2022-08-05T17:30:07.137Z,100654.34
2022-08-05T17:32:46.684Z,100658.69
2022-08-05T17:35:20.557Z,100666.38
2022-08-05T17:37:50.478Z,100666.88
2022-08-05T17:40:22.603Z,100677.53
2022-08-05T17:42:53.526Z,100680.91
2022-08-05T17:45:38.286Z,100686.41
2022-08-05T17:48:07.921Z,100692.13
2022-08-05T17:50:36.232Z,100691.72
2022-08-05T17:53:05.545Z,100696.12
2022-08-05T17:55:39.464Z,100684.06
2022-08-05T17:58:14.637Z,100687.16
2022-08-05T18:00:50.860Z,100694.75
2022-08-05T18:06:12.254Z,100684.75
2022-08-05T18:08:46.206Z,100694.87
2022-08-05T18:11:23.995Z,100691.41
2022-08-05T18:13:54.858Z,100700.41
2022-08-05T18:16:24.778Z,100702.53
2022-08-05T18:18:52.736Z,100716.81
2022-08-05T18:21:25.868Z,100728.53
2022-08-05T18:23:54.635Z,100724.97
2022-08-05T18:26:29.147Z,100724.47
2022-08-05T18:29:00.277Z,100725.50
2022-08-05T18:31:33.908Z,100730.91
2022-08-05T18:34:05.934Z,100726.13
2022-08-05T18:36:36.273Z,100735.78
2022-08-05T18:39:09.771Z,100748.41
2022-08-05T18:42:01.828Z,100743.50
2022-08-05T18:44:55.363Z,100762.06
2022-08-05T18:47:26.627Z,100762.34
2022-08-05T18:50:13.206Z,100774.84
2022-08-05T18:52:51.250Z,100770.09
2022-08-05T18:55:20.310Z,100769.56
2022-08-05T18:57:54.129Z,100773.97
2022-08-05T19:00:31.024Z,100766.34
2022-08-05T19:03:04.693Z,100772.91
2022-08-05T19:06:11.127Z,100781.34
2022-08-05T19:08:30.898Z,100784.47
2022-08-05T19:11:04.614Z,100799.41
2022-08-05T19:13:35.589Z,100791.59
2022-08-05T19:16:05.688Z,100799.16
2022-08-05T19:18:56.669Z,100806.91
2022-08-05T19:21:27.356Z,100813.37
2022-08-05T19:24:05.543Z,100825.19
2022-08-05T19:26:54.372Z,100819.22
2022-08-05T19:29:26.823Z,100817.94
2022-08-05T19:32:04.521Z,100830.59
2022-08-05T19:34:34.216Z,100845.09
2022-08-05T19:37:02.598Z,100844.78
2022-08-05T19:39:32.049Z,100843.84
2022-08-05T19:42:15.299Z,100866.53
2022-08-05T19:44:45.097Z,100867.13
2022-08-05T19:47:15.097Z,100867.25
2022-08-05T19:49:46.133Z,100869.66
2022-08-05T19:52:30.418Z,100872.38
2022-08-05T19:55:07.154Z,100867.69
2022-08-05T19:58:14.400Z,100866.16
2022-08-05T20:00:37.930Z,100860.75
2022-08-05T20:03:09.079Z,100863.63
2022-08-05T20:05:43.344Z,100856.12
2022-08-05T20:08:18.794Z,100854.09
2022-08-05T20:10:49.771Z,100879.91
2022-08-05T20:13:30.322Z,100875.53
2022-08-05T20:16:07.440Z,100867.50
2022-08-05T20:18:36.419Z,100872.72
2022-08-05T20:21:07.359Z,100884.06
2022-08-05T20:23:40.206Z,100897.97
2022-08-05T20:26:20.533Z,100904.31
2022-08-05T20:28:50.692Z,100901.63
2022-08-05T20:31:21.791Z,100915.13
2022-08-05T20:33:51.848Z,100915.00
2022-08-05T20:36:22.572Z,100931.87
2022-08-05T20:38:54.634Z,100940.12
2022-08-05T20:41:43.515Z,100943.41
2022-08-05T20:44:28.927Z,100948.38
2022-08-05T20:47:00.022Z,100957.06
2022-08-05T20:49:28.311Z,100963.56
2022-08-05T20:51:58.413Z,100959.59
2022-08-05T20:54:43.173Z,100966.25
2022-08-05T20:57:42.113Z,100971.81
2022-08-05T21:00:19.706Z,100972.19
2022-08-05T21:02:54.466Z,100975.44
2022-08-05T21:05:24.251Z,100975.28
2022-08-05T21:08:00.376Z,100969.03
2022-08-05T21:10:28.747Z,100966.97
2022-08-05T21:13:02.698Z,100971.34
2022-08-05T21:15:38.515Z,100969.53
2022-08-05T21:18:06.631Z,100986.28
2022-08-05T21:20:35.064Z,100991.44
2022-08-05T21:23:07.329Z,100991.53
2022-08-05T21:25:35.287Z,100987.72
2022-08-05T21:28:03.956Z,100996.50
2022-08-05T21:30:32.168Z,100990.41
2022-08-05T21:33:01.871Z,100978.59
2022-08-05T21:35:43.825Z,100975.91
2022-08-05T21:38:20.261Z,100961.88
2022-08-05T21:40:48.419Z,100982.44
2022-08-05T21:43:24.170Z,101000.03
2022-08-05T21:45:57.553Z,101000.63
2022-08-05T21:48:28.906Z,101000.63
2022-08-05T21:50:57.509Z,100990.66
2022-08-05T21:53:27.545Z,100989.97
2022-08-05T21:56:06.136Z,100984.59
2022-08-05T21:58:56.978Z,100982.34
2022-08-05T22:01:26.181Z,100976.41
2022-08-05T22:03:54.628Z,100981.75
2022-08-05T22:06:35.600Z,100990.63
2022-08-05T22:09:13.562Z,100991.47
2022-08-05T22:11:47.346Z,100988.06
2022-08-05T22:14:33.325Z,100994.84
2022-08-05T22:17:06.675Z,100989.03
2022-08-05T22:20:01.441Z,100995.28
2022-08-05T22:22:28.083Z,100994.88
2022-08-05T22:25:21.170Z,101002.97
2022-08-05T22:28:10.225Z,101017.63
2022-08-05T22:30:55.784Z,101011.38
2022-08-05T22:33:56.523Z,101020.47
2022-08-05T22:36:15.552Z,101023.03
2022-08-05T22:38:47.950Z,101028.44
2022-08-05T22:41:26.222Z,101030.81
2022-08-05T22:44:09.279Z,101034.94
2022-08-05T22:46:39.599Z,101046.56
2022-08-05T22:49:23.058Z,101042.31
2022-08-05T22:52:04.875Z,101047.44
2022-08-05T22:54:34.868Z,101044.56
2022-08-05T22:57:04.965Z,101049.97
2022-08-05T22:59:45.057Z,101053.50
2022-08-05T23:02:17.494Z,101061.03
2022-08-05T23:04:51.138Z,101066.44
2022-08-05T23:07:21.909Z,101069.69
2022-08-05T23:09:58.004Z,101079.75
2022-08-05T23:12:32.674Z,101073.38
2022-08-05T23:15:03.369Z,101077.34
2022-08-05T23:17:37.623Z,101075.78
2022-08-05T23:20:10.501Z,101085.41
2022-08-05T23:22:47.666Z,101085.41
2022-08-05T23:25:51.863Z,101082.88
2022-08-05T23:28:07.767Z,101080.75
2022-08-05T23:30:39.671Z,101074.22
2022-08-05T23:33:19.019Z,101070.22
2022-08-05T23:35:56.107Z,101081.44
2022-08-05T23:38:25.938Z,101084.00
2022-08-05T23:40:54.790Z,101095.91
2022-08-05T23:43:49.711Z,101099.59
2022-08-05T23:46:21.196Z,101105.22
2022-08-05T23:49:01.171Z,101108.22
2022-08-05T23:51:53.876Z,101115.72
2022-08-05T23:54:25.606Z,101131.19
2022-08-05T23:56:55.887Z,101131.28
